Time;durP1;ratioP1;P1;durP2;ratioP2;P2;SDS_P1;SDS_P2;PMS_P1;PMS_P2;Temp;Humidity;BMP_temperature;BMP_pressure;BME280_temperature;BME280_humidity;BME280_pressure;Samples;Min_cycle;Max_cycle;Signal;HPM_P1;HPM_P2
2023/07/24 00:02:13;;;;;;;1.70;1.60;;;;;;;;;;5095643;28;20097;-79
2023/07/24 00:04:39;;;;;;;1.80;1.45;;;;;;;;;;5076680;28;20028;-79
2023/07/24 00:07:04;;;;;;;1.67;1.50;;;;;;;;;;5076352;28;20063;-79
2023/07/24 00:09:30;;;;;;;2.30;1.80;;;;;;;;;;5076563;28;20047;-79
2023/07/24 00:11:55;;;;;;;1.77;1.63;;;;;;;;;;5094681;28;20436;-79
2023/07/24 00:14:20;;;;;;;1.50;1.40;;;;;;;;;;5094909;28;20043;-78
2023/07/24 00:16:46;;;;;;;2.30;1.77;;;;;;;;;;5093306;28;20465;-79
2023/07/24 00:19:11;;;;;;;1.67;1.55;;;;;;;;;;5093088;28;20035;-78
2023/07/24 00:21:36;;;;;;;2.05;1.65;;;;;;;;;;5093605;28;20089;-79
2023/07/24 00:24:02;;;;;;;1.90;1.70;;;;;;;;;;5094340;28;20024;-79
2023/07/24 00:26:27;;;;;;;1.80;1.67;;;;;;;;;;5093454;28;20375;-79
2023/07/24 00:28:53;;;;;;;1.60;1.50;;;;;;;;;;5093021;28;20031;-79
2023/07/24 00:31:18;;;;;;;2.33;1.75;;;;;;;;;;5093418;28;20042;-79
2023/07/24 00:33:43;;;;;;;2.15;1.63;;;;;;;;;;5093362;28;20122;-79
2023/07/24 00:36:09;;;;;;;1.77;1.67;;;;;;;;;;5093317;28;20035;-78
2023/07/24 00:38:34;;;;;;;1.88;1.67;;;;;;;;;;5094138;28;20107;-79
2023/07/24 00:40:59;;;;;;;2.10;1.60;;;;;;;;;;5092908;28;20055;-79
2023/07/24 00:43:25;;;;;;;1.80;1.70;;;;;;;;;;5094095;28;20111;-79
2023/07/24 00:45:50;;;;;;;1.95;1.70;;;;;;;;;;5092829;28;20085;-79
2023/07/24 00:48:15;;;;;;;1.50;1.40;;;;;;;;;;5092812;28;20417;-79
2023/07/24 00:50:43;;;;;;;1.92;1.52;;;;;;;;;;5075936;28;20036;-78
2023/07/24 00:53:08;;;;;;;2.65;1.60;;;;;;;;;;5092773;28;20107;-79
2023/07/24 00:55:34;;;;;;;1.88;1.60;;;;;;;;;;5092977;28;20062;-79
2023/07/24 00:58:00;;;;;;;1.52;1.40;;;;;;;;;;5091916;28;20409;-78
2023/07/24 01:00:25;;;;;;;1.55;1.45;;;;;;;;;;5092922;28;20039;-79
2023/07/24 01:02:51;;;;;;;1.70;1.60;;;;;;;;;;5092726;28;20028;-79
2023/07/24 01:05:17;;;;;;;1.83;1.73;;;;;;;;;;5093201;28;20043;-78
2023/07/24 01:07:42;;;;;;;1.80;1.50;;;;;;;;;;5092970;28;20040;-79
2023/07/24 01:10:08;;;;;;;1.92;1.73;;;;;;;;;;5093905;28;20036;-79
2023/07/24 01:12:47;;;;;;;4.18;1.95;;;;;;;;;;5092610;28;20068;-79
2023/07/24 01:15:20;;;;;;;3.38;1.58;;;;;;;;;;5093671;28;20065;-79
2023/07/24 01:17:48;;;;;;;1.55;1.42;;;;;;;;;;5092306;28;20081;-79
2023/07/24 01:20:15;;;;;;;2.10;1.50;;;;;;;;;;5094091;28;20536;-79
2023/07/24 01:23:07;;;;;;;2.20;1.50;;;;;;;;;;5094682;28;20495;-80
2023/07/24 01:25:35;;;;;;;2.58;1.60;;;;;;;;;;5090579;28;20093;-77
2023/07/24 01:28:01;;;;;;;1.90;1.40;;;;;;;;;;5093967;28;20070;-79
2023/07/24 01:30:26;;;;;;;1.70;1.60;;;;;;;;;;5092733;28;20028;-79
2023/07/24 01:32:51;;;;;;;2.03;1.60;;;;;;;;;;5092733;28;20031;-78
2023/07/24 01:35:17;;;;;;;1.50;1.40;;;;;;;;;;5094080;28;20057;-79
2023/07/24 01:37:43;;;;;;;2.42;1.80;;;;;;;;;;5092773;28;20040;-79
2023/07/24 01:40:09;;;;;;;1.95;1.70;;;;;;;;;;5092522;28;20044;-79
2023/07/24 01:42:35;;;;;;;1.70;1.60;;;;;;;;;;5092126;28;20028;-79
2023/07/24 01:45:02;;;;;;;1.55;1.45;;;;;;;;;;5093635;28;20076;-79
2023/07/24 01:47:27;;;;;;;1.85;1.58;;;;;;;;;;5093579;28;20027;-79
2023/07/24 01:49:53;;;;;;;3.50;1.65;;;;;;;;;;5091966;28;20032;-79
2023/07/24 01:52:19;;;;;;;1.70;1.60;;;;;;;;;;5092199;28;20039;-79
2023/07/24 01:54:44;;;;;;;1.63;1.52;;;;;;;;;;5075184;28;20402;-79
2023/07/24 01:57:09;;;;;;;1.60;1.50;;;;;;;;;;5092380;28;20114;-79
2023/07/24 01:59:35;;;;;;;1.90;1.70;;;;;;;;;;5092282;28;20059;-79
2023/07/24 02:02:00;;;;;;;1.50;1.40;;;;;;;;;;5093582;28;20437;-79
2023/07/24 02:04:25;;;;;;;2.50;1.58;;;;;;;;;;5091959;28;20028;-79
2023/07/24 02:06:51;;;;;;;2.05;1.67;;;;;;;;;;5093269;28;20047;-80
2023/07/24 02:09:18;;;;;;;3.25;1.60;;;;;;;;;;5093658;28;20078;-79
2023/07/24 02:11:43;;;;;;;1.73;1.50;;;;;;;;;;5096383;28;20327;-79
2023/07/24 02:14:11;;;;;;;2.75;1.40;;;;;;;;;;5097242;28;20039;-79
2023/07/24 02:16:36;;;;;;;1.58;1.48;;;;;;;;;;5078711;28;20489;-79
2023/07/24 02:19:02;;;;;;;1.65;1.55;;;;;;;;;;5095459;28;20058;-79
2023/07/24 02:21:27;;;;;;;1.65;1.40;;;;;;;;;;5097274;28;20468;-79
2023/07/24 02:23:52;;;;;;;1.83;1.73;;;;;;;;;;5096704;28;20051;-80
2023/07/24 02:26:18;;;;;;;1.50;1.40;;;;;;;;;;5097342;28;20031;-79
2023/07/24 02:28:43;;;;;;;2.08;1.75;;;;;;;;;;5112749;28;20073;-80
2023/07/24 02:31:09;;;;;;;1.63;1.50;;;;;;;;;;5096643;28;20177;-79
2023/07/24 02:33:34;;;;;;;1.55;1.45;;;;;;;;;;5095695;28;20028;-79
2023/07/24 02:36:00;;;;;;;1.70;1.60;;;;;;;;;;5096533;28;20535;-80
2023/07/24 02:38:26;;;;;;;1.80;1.70;;;;;;;;;;5095499;28;20478;-79
2023/07/24 02:40:51;;;;;;;4.18;1.75;;;;;;;;;;5096437;28;20035;-79
2023/07/24 02:43:16;;;;;;;1.60;1.50;;;;;;;;;;5096697;28;20030;-79
2023/07/24 02:45:42;;;;;;;5.07;1.80;;;;;;;;;;5095421;28;20093;-79
2023/07/24 02:48:07;;;;;;;2.05;1.50;;;;;;;;;;5096289;28;20466;-79
2023/07/24 02:50:33;;;;;;;1.52;1.42;;;;;;;;;;5095499;28;20127;-79
2023/07/24 02:52:59;;;;;;;1.60;1.50;;;;;;;;;;5094961;28;20032;-79
2023/07/24 02:55:24;;;;;;;1.60;1.50;;;;;;;;;;5096112;28;20522;-79
2023/07/24 02:57:50;;;;;;;2.00;1.60;;;;;;;;;;5096045;28;20036;-79
2023/07/24 03:00:16;;;;;;;2.28;1.58;;;;;;;;;;5095152;28;20020;-79
2023/07/24 03:02:41;;;;;;;1.38;1.27;;;;;;;;;;5094819;28;20363;-79
2023/07/24 03:05:07;;;;;;;1.42;1.30;;;;;;;;;;5095976;28;20424;-79
2023/07/24 03:07:32;;;;;;;1.30;1.20;;;;;;;;;;5095818;28;20117;-79
2023/07/24 03:09:58;;;;;;;1.40;1.30;;;;;;;;;;5095037;28;20020;-79
2023/07/24 03:12:23;;;;;;;1.40;1.30;;;;;;;;;;5094670;28;20400;-79
2023/07/24 03:14:49;;;;;;;1.85;1.50;;;;;;;;;;5095145;28;20028;-79
2023/07/24 03:17:14;;;;;;;1.30;1.20;;;;;;;;;;5094582;28;20024;-79
2023/07/24 03:19:40;;;;;;;1.58;1.48;;;;;;;;;;5095796;28;20036;-80
2023/07/24 03:22:06;;;;;;;1.50;1.40;;;;;;;;;;5093437;28;20042;-80
2023/07/24 03:24:31;;;;;;;1.75;1.65;;;;;;;;;;5094369;28;20107;-79
2023/07/24 03:26:57;;;;;;;1.40;1.30;;;;;;;;;;5095788;28;20024;-79
2023/07/24 03:29:22;;;;;;;1.40;1.30;;;;;;;;;;5095773;28;20032;-79
2023/07/24 03:31:47;;;;;;;1.40;1.30;;;;;;;;;;5094227;28;20551;-79
2023/07/24 03:34:13;;;;;;;1.70;1.38;;;;;;;;;;5095002;28;20039;-79
2023/07/24 03:36:41;;;;;;;1.40;1.30;;;;;;;;;;5095686;28;20035;-80
2023/07/24 03:39:07;;;;;;;2.28;1.50;;;;;;;;;;5094081;28;20498;-80
2023/07/24 03:41:32;;;;;;;1.30;1.20;;;;;;;;;;5077054;28;20126;-79
2023/07/24 03:43:57;;;;;;;1.63;1.50;;;;;;;;;;5094033;28;20035;-79
2023/07/24 03:46:23;;;;;;;2.70;1.52;;;;;;;;;;5094241;28;20024;-79
2023/07/24 03:48:50;;;;;;;2.00;1.60;;;;;;;;;;5095368;28;20035;-79
2023/07/24 03:51:15;;;;;;;1.73;1.08;;;;;;;;;;5094432;28;20360;-79
2023/07/24 03:53:41;;;;;;;1.52;1.42;;;;;;;;;;5095287;28;20093;-80
2023/07/24 03:56:06;;;;;;;1.30;1.20;;;;;;;;;;5094080;28;20470;-79
2023/07/24 03:58:32;;;;;;;2.05;1.60;;;;;;;;;;5093930;28;20030;-81
2023/07/24 04:00:57;;;;;;;1.55;1.35;;;;;;;;;;5076597;28;20020;-81
2023/07/24 04:03:23;;;;;;;2.75;1.50;;;;;;;;;;5093554;28;20032;-81
2023/07/24 04:05:48;;;;;;;1.40;1.30;;;;;;;;;;5093909;28;20081;-79
2023/07/24 04:08:13;;;;;;;1.67;1.30;;;;;;;;;;5094522;28;20048;-79
2023/07/24 04:10:39;;;;;;;1.65;1.40;;;;;;;;;;5094666;28;20032;-81
2023/07/24 04:13:04;;;;;;;3.58;1.60;;;;;;;;;;5093394;28;20031;-81
2023/07/24 04:15:29;;;;;;;2.60;1.23;;;;;;;;;;5093536;28;20032;-80
2023/07/24 04:17:55;;;;;;;1.42;1.30;;;;;;;;;;5094723;28;20161;-81
2023/07/24 04:20:20;;;;;;;1.42;1.25;;;;;;;;;;5094593;28;20118;-81
2023/07/24 04:22:45;;;;;;;2.08;1.60;;;;;;;;;;5092840;28;20035;-81
2023/07/24 04:25:11;;;;;;;1.40;1.30;;;;;;;;;;5094222;28;20028;-81
2023/07/24 04:27:36;;;;;;;2.25;1.80;;;;;;;;;;5093101;28;20446;-81
2023/07/24 04:30:02;;;;;;;1.55;1.23;;;;;;;;;;5094496;28;20510;-81
2023/07/24 04:32:27;;;;;;;1.40;1.30;;;;;;;;;;5094010;28;20036;-80
2023/07/24 04:34:53;;;;;;;1.98;1.40;;;;;;;;;;5094507;28;20048;-81
2023/07/24 04:37:18;;;;;;;1.50;1.40;;;;;;;;;;5093247;28;20119;-81
2023/07/24 04:39:44;;;;;;;1.83;1.42;;;;;;;;;;5094033;28;20048;-81
2023/07/24 04:42:09;;;;;;;1.45;1.30;;;;;;;;;;5094082;28;20107;-81
2023/07/24 04:44:34;;;;;;;2.97;1.40;;;;;;;;;;5092769;28;20063;-80
2023/07/24 04:47:01;;;;;;;2.50;1.30;;;;;;;;;;5092960;28;20028;-81
2023/07/24 04:49:29;;;;;;;2.55;1.40;;;;;;;;;;5094239;28;20103;-81
2023/07/24 04:51:54;;;;;;;1.40;1.30;;;;;;;;;;5093988;28;20027;-81
2023/07/24 04:54:19;;;;;;;1.83;1.40;;;;;;;;;;5093944;28;20024;-81
2023/07/24 04:56:45;;;;;;;1.58;1.45;;;;;;;;;;5093977;28;20035;-81
2023/07/24 04:59:10;;;;;;;1.52;1.40;;;;;;;;;;5093173;28;20035;-81
2023/07/24 05:01:35;;;;;;;1.50;1.40;;;;;;;;;;5092898;28;20032;-81
2023/07/24 05:04:01;;;;;;;3.63;1.80;;;;;;;;;;5094050;28;20036;-81
2023/07/24 05:06:26;;;;;;;1.65;1.38;;;;;;;;;;5075846;28;20084;-81
2023/07/24 05:08:53;;;;;;;1.35;1.20;;;;;;;;;;5093878;28;20043;-81
2023/07/24 05:11:18;;;;;;;1.45;1.30;;;;;;;;;;5075761;28;20115;-81
2023/07/24 05:13:43;;;;;;;2.03;1.50;;;;;;;;;;5093938;28;20103;-80
2023/07/24 05:16:09;;;;;;;1.50;1.40;;;;;;;;;;5075887;28;20071;-81
2023/07/24 05:18:34;;;;;;;2.92;1.90;;;;;;;;;;5092465;28;20375;-80
2023/07/24 05:20:59;;;;;;;1.42;1.33;;;;;;;;;;5075618;28;20497;-81
2023/07/24 05:23:25;;;;;;;1.70;1.60;;;;;;;;;;5093579;28;20074;-81
2023/07/24 05:26:01;;;;;;;1.55;1.40;;;;;;;;;;5092399;28;20474;-81
2023/07/24 05:28:30;;;;;;;1.48;1.23;;;;;;;;;;5093621;28;20023;-81
2023/07/24 05:31:00;;;;;;;1.60;1.42;;;;;;;;;;5092554;28;20478;-81
2023/07/24 05:33:25;;;;;;;3.90;1.60;;;;;;;;;;5093802;28;20032;-81
2023/07/24 05:35:51;;;;;;;1.60;1.50;;;;;;;;;;5075343;28;20375;-81
2023/07/24 05:38:16;;;;;;;2.05;1.70;;;;;;;;;;5093662;28;20037;-81
2023/07/24 05:40:42;;;;;;;1.65;1.45;;;;;;;;;;5092243;28;20024;-81
2023/07/24 05:43:07;;;;;;;1.73;1.50;;;;;;;;;;5092445;28;20058;-81
2023/07/24 05:45:32;;;;;;;2.58;1.70;;;;;;;;;;5094670;28;20035;-81
2023/07/24 05:47:58;;;;;;;1.98;1.50;;;;;;;;;;5079345;28;20032;-81
2023/07/24 05:50:23;;;;;;;2.10;1.52;;;;;;;;;;5079217;28;20036;-80
2023/07/24 05:52:48;;;;;;;1.50;1.40;;;;;;;;;;5097720;28;20105;-81
2023/07/24 05:55:14;;;;;;;4.93;1.70;;;;;;;;;;5097455;28;20035;-80
2023/07/24 05:57:39;;;;;;;1.63;1.52;;;;;;;;;;5096477;28;20459;-81
2023/07/24 06:00:05;;;;;;;2.30;1.60;;;;;;;;;;5095779;28;20085;-80
2023/07/24 06:02:31;;;;;;;1.60;1.48;;;;;;;;;;5079086;28;20470;-79
2023/07/24 06:04:56;;;;;;;1.73;1.63;;;;;;;;;;5095894;28;20047;-79
2023/07/24 06:07:22;;;;;;;2.65;1.70;;;;;;;;;;5095990;28;20048;-79
2023/07/24 06:09:47;;;;;;;2.50;1.80;;;;;;;;;;5096042;28;20463;-79
2023/07/24 06:12:12;;;;;;;2.72;1.77;;;;;;;;;;5112747;28;20043;-79
2023/07/24 06:14:38;;;;;;;2.58;1.88;;;;;;;;;;5096346;28;20498;-76
2023/07/24 06:17:03;;;;;;;4.25;1.88;;;;;;;;;;5096800;28;20066;-78
2023/07/24 06:19:29;;;;;;;4.05;1.92;;;;;;;;;;5095970;28;20063;-77
2023/07/24 06:21:54;;;;;;;3.10;2.15;;;;;;;;;;5095944;28;20119;-79
2023/07/24 06:24:20;;;;;;;8.57;2.17;;;;;;;;;;5095305;28;20043;-78
2023/07/24 06:26:46;;;;;;;22.42;5.25;;;;;;;;;;5095369;28;20020;-78
2023/07/24 06:29:11;;;;;;;18.08;4.93;;;;;;;;;;5095087;28;20067;-77
2023/07/24 06:31:37;;;;;;;13.45;4.57;;;;;;;;;;5094769;28;20032;-78
2023/07/24 06:34:02;;;;;;;11.48;4.05;;;;;;;;;;5094754;28;20043;-78
2023/07/24 06:36:28;;;;;;;10.38;3.35;;;;;;;;;;5095983;28;20461;-78
2023/07/24 06:38:53;;;;;;;9.27;3.13;;;;;;;;;;5095607;28;20043;-77
2023/07/24 06:41:21;;;;;;;7.50;3.17;;;;;;;;;;5094302;28;20127;-77
2023/07/24 06:43:46;;;;;;;7.43;3.28;;;;;;;;;;5095823;28;20052;-77
2023/07/24 06:46:11;;;;;;;8.55;2.90;;;;;;;;;;5095695;28;20078;-78
2023/07/24 06:48:37;;;;;;;7.22;2.75;;;;;;;;;;5094481;28;20024;-78
2023/07/24 06:51:02;;;;;;;7.32;2.47;;;;;;;;;;5094593;28;20027;-79
2023/07/24 06:53:27;;;;;;;5.07;2.50;;;;;;;;;;5094447;28;20071;-78
2023/07/24 06:55:53;;;;;;;7.75;3.08;;;;;;;;;;5095276;28;20115;-78
2023/07/24 06:58:18;;;;;;;6.07;2.55;;;;;;;;;;5096248;28;20032;-77
2023/07/24 07:00:43;;;;;;;5.25;2.83;;;;;;;;;;5098753;28;20046;-78
2023/07/24 07:03:09;;;;;;;6.72;2.60;;;;;;;;;;5097770;28;20047;-77
2023/07/24 07:05:34;;;;;;;4.15;2.70;;;;;;;;;;5096457;28;20027;-78
2023/07/24 07:08:00;;;;;;;8.63;2.50;;;;;;;;;;5094920;28;20495;-79
2023/07/24 07:10:25;;;;;;;5.13;2.78;;;;;;;;;;5077990;28;20053;-78
2023/07/24 07:12:51;;;;;;;7.10;2.28;;;;;;;;;;5096126;28;20081;-76
2023/07/24 07:15:16;;;;;;;4.22;2.67;;;;;;;;;;5094977;28;20036;-78
2023/07/24 07:17:42;;;;;;;3.55;2.25;;;;;;;;;;5094752;28;20160;-79
2023/07/24 07:20:07;;;;;;;3.20;2.35;;;;;;;;;;5094325;28;20038;-75
2023/07/24 07:22:33;;;;;;;7.63;2.60;;;;;;;;;;5077627;28;20475;-75
2023/07/24 07:24:58;;;;;;;4.22;2.35;;;;;;;;;;5095869;28;20028;-75
2023/07/24 07:27:23;;;;;;;3.50;2.53;;;;;;;;;;5094586;28;20086;-77
2023/07/24 07:29:49;;;;;;;4.22;2.85;;;;;;;;;;5094930;28;20450;-75
2023/07/24 07:32:14;;;;;;;2.60;2.25;;;;;;;;;;5077805;28;20023;-78
2023/07/24 07:34:40;;;;;;;4.50;2.45;;;;;;;;;;5095183;28;20032;-78
2023/07/24 07:37:06;;;;;;;7.20;2.60;;;;;;;;;;5095793;28;20466;-75
2023/07/24 07:39:32;;;;;;;5.60;2.63;;;;;;;;;;5095438;28;20414;-78
2023/07/24 07:41:57;;;;;;;5.25;2.50;;;;;;;;;;5096984;28;20024;-78
2023/07/24 07:44:23;;;;;;;5.18;2.60;;;;;;;;;;5095969;28;20039;-78
2023/07/24 07:46:48;;;;;;;9.05;3.10;;;;;;;;;;5095236;28;20032;-79
2023/07/24 07:49:13;;;;;;;6.00;2.72;;;;;;;;;;5096268;28;20467;-79
2023/07/24 07:51:39;;;;;;;6.43;2.63;;;;;;;;;;5097755;28;20040;-78
2023/07/24 07:54:04;;;;;;;5.90;2.67;;;;;;;;;;5097577;28;20024;-79
2023/07/24 07:56:30;;;;;;;4.38;2.70;;;;;;;;;;5079587;28;20090;-78
2023/07/24 07:58:55;;;;;;;3.85;2.30;;;;;;;;;;5098442;28;20073;-78
2023/07/24 08:01:20;;;;;;;3.42;2.53;;;;;;;;;;5094814;28;20027;-75
2023/07/24 08:03:46;;;;;;;3.28;2.67;;;;;;;;;;5112050;28;20500;-76
2023/07/24 08:06:12;;;;;;;2.83;2.33;;;;;;;;;;5094867;28;20497;-76
2023/07/24 08:08:37;;;;;;;2.92;2.50;;;;;;;;;;5093505;28;20050;-77
2023/07/24 08:11:06;;;;;;;4.13;2.28;;;;;;;;;;5076828;28;20111;-75
2023/07/24 08:13:33;;;;;;;4.07;2.47;;;;;;;;;;5093990;28;20036;-75
2023/07/24 08:16:03;;;;;;;8.25;2.80;;;;;;;;;;5094009;28;20435;-75
2023/07/24 08:18:30;;;;;;;3.45;2.40;;;;;;;;;;5093455;28;20031;-78
2023/07/24 08:20:55;;;;;;;5.60;2.42;;;;;;;;;;5095474;28;20032;-81
2023/07/24 08:23:20;;;;;;;6.43;2.53;;;;;;;;;;5094485;28;20451;-77
2023/07/24 08:25:53;;;;;;;5.85;2.38;;;;;;;;;;5094096;28;20030;-78
2023/07/24 08:28:19;;;;;;;3.55;2.80;;;;;;;;;;5093891;28;20054;-76
2023/07/24 08:30:45;;;;;;;5.22;2.90;;;;;;;;;;5076864;28;20036;-78
2023/07/24 08:33:11;;;;;;;11.32;2.80;;;;;;;;;;5095128;28;20027;-78
2023/07/24 08:35:36;;;;;;;6.45;2.63;;;;;;;;;;5094449;28;20027;-78
2023/07/24 08:38:03;;;;;;;3.83;2.72;;;;;;;;;;5095719;28;20020;-77
2023/07/24 08:40:29;;;;;;;4.80;2.72;;;;;;;;;;5077466;28;20027;-77
2023/07/24 08:42:55;;;;;;;4.65;2.88;;;;;;;;;;5095306;28;20577;-78
2023/07/24 08:45:22;;;;;;;5.65;2.70;;;;;;;;;;5097013;28;20467;-77
2023/07/24 08:47:47;;;;;;;4.25;2.88;;;;;;;;;;5079786;28;20133;-77
2023/07/24 08:50:15;;;;;;;5.80;2.78;;;;;;;;;;5096225;28;20036;-77
2023/07/24 08:52:44;;;;;;;5.60;2.70;;;;;;;;;;5100348;28;20131;-78
2023/07/24 08:55:11;;;;;;;5.38;2.60;;;;;;;;;;5097700;28;20031;-78
2023/07/24 08:57:37;;;;;;;5.05;2.60;;;;;;;;;;5059644;28;20036;-78
2023/07/24 09:00:04;;;;;;;4.05;2.83;;;;;;;;;;5072314;28;20376;-78
2023/07/24 09:02:34;;;;;;;3.90;2.70;;;;;;;;;;5056006;28;20063;-78
2023/07/24 09:04:59;;;;;;;3.95;3.10;;;;;;;;;;5072211;28;20058;-77
2023/07/24 09:07:24;;;;;;;5.22;3.03;;;;;;;;;;5073234;28;20060;-78
2023/07/24 09:09:50;;;;;;;5.53;2.97;;;;;;;;;;5073344;28;20035;-77
2023/07/24 09:12:16;;;;;;;5.75;2.97;;;;;;;;;;5070254;28;20032;-76
2023/07/24 09:14:41;;;;;;;5.45;2.60;;;;;;;;;;5071749;28;20513;-76
2023/07/24 09:17:09;;;;;;;4.43;2.75;;;;;;;;;;5073174;28;20035;-76
2023/07/24 09:19:35;;;;;;;4.82;2.67;;;;;;;;;;5070803;28;20107;-76
2023/07/24 09:22:14;;;;;;;4.30;2.60;;;;;;;;;;5071895;28;20180;-76
2023/07/24 09:24:56;;;;;;;3.88;2.47;;;;;;;;;;5072003;28;20025;-77
2023/07/24 09:27:27;;;;;;;3.47;2.50;;;;;;;;;;5080332;28;20028;-76
2023/07/24 09:29:52;;;;;;;3.95;2.30;;;;;;;;;;5092205;28;20360;-76
2023/07/24 09:32:25;;;;;;;6.38;2.70;;;;;;;;;;5092213;28;20016;-76
2023/07/24 09:34:51;;;;;;;4.05;2.90;;;;;;;;;;5092582;28;20028;-76
2023/07/24 09:37:27;;;;;;;5.88;2.70;;;;;;;;;;5092252;28;20142;-77
2023/07/24 09:39:53;;;;;;;13.88;4.10;;;;;;;;;;5093518;28;20028;-77
2023/07/24 09:42:27;;;;;;;8.65;3.47;;;;;;;;;;5092643;28;20077;-77
2023/07/24 09:44:53;;;;;;;7.13;3.50;;;;;;;;;;5093378;28;20024;-77
2023/07/24 09:47:18;;;;;;;12.05;3.75;;;;;;;;;;5092163;28;20031;-77
2023/07/24 09:49:43;;;;;;;7.47;3.58;;;;;;;;;;5075435;28;20039;-78
2023/07/24 09:52:10;;;;;;;5.65;3.28;;;;;;;;;;5092416;28;20136;-77
2023/07/24 09:54:45;;;;;;;7.32;3.45;;;;;;;;;;5092894;28;20020;-76
2023/07/24 09:57:11;;;;;;;6.68;4.05;;;;;;;;;;5092553;28;20027;-77
2023/07/24 09:59:36;;;;;;;9.75;4.75;;;;;;;;;;5093618;28;20486;-78
2023/07/24 10:02:02;;;;;;;10.18;3.72;;;;;;;;;;5075587;28;20115;-78
2023/07/24 10:04:28;;;;;;;10.63;4.25;;;;;;;;;;5093302;28;20032;-77
2023/07/24 10:06:54;;;;;;;7.00;3.58;;;;;;;;;;5092461;28;20024;-77
2023/07/24 10:09:22;;;;;;;6.80;3.25;;;;;;;;;;5092232;28;20049;-77
2023/07/24 10:11:48;;;;;;;8.63;4.03;;;;;;;;;;5092486;28;20024;-78
2023/07/24 10:14:13;;;;;;;8.35;3.25;;;;;;;;;;5092199;28;20153;-77
2023/07/24 10:16:40;;;;;;;6.70;3.25;;;;;;;;;;5091858;28;20032;-78
2023/07/24 10:19:14;;;;;;;7.15;2.65;;;;;;;;;;5091687;28;20052;-77
2023/07/24 10:21:45;;;;;;;12.43;3.97;;;;;;;;;;5092497;28;20070;-78
2023/07/24 10:24:10;;;;;;;6.05;3.20;;;;;;;;;;5092003;28;20024;-78
2023/07/24 10:26:36;;;;;;;4.90;2.78;;;;;;;;;;5091802;28;20123;-78
2023/07/24 10:29:01;;;;;;;6.65;2.85;;;;;;;;;;5091894;28;20048;-78
2023/07/24 10:31:28;;;;;;;5.97;2.63;;;;;;;;;;5094192;28;20620;-79
2023/07/24 10:33:54;;;;;;;6.47;2.78;;;;;;;;;;5096711;28;20103;-77
2023/07/24 10:36:22;;;;;;;5.25;3.08;;;;;;;;;;5096980;28;20059;-77
2023/07/24 10:38:53;;;;;;;3.38;2.50;;;;;;;;;;5096809;28;20020;-78
2023/07/24 10:41:18;;;;;;;4.57;2.65;;;;;;;;;;5095423;28;20028;-76
2023/07/24 10:43:49;;;;;;;4.75;2.78;;;;;;;;;;5096352;28;20047;-77
2023/07/24 10:46:15;;;;;;;3.05;2.60;;;;;;;;;;5095173;28;20094;-78
2023/07/24 10:48:46;;;;;;;6.20;2.75;;;;;;;;;;5095536;28;20046;-77
2023/07/24 10:51:14;;;;;;;4.07;2.50;;;;;;;;;;5095808;28;20039;-77
2023/07/24 10:53:45;;;;;;;4.32;2.58;;;;;;;;;;5078437;28;20460;-77
2023/07/24 10:56:10;;;;;;;3.85;2.47;;;;;;;;;;5095017;28;20028;-77
2023/07/24 10:58:36;;;;;;;3.30;2.45;;;;;;;;;;5078349;28;20028;-78
2023/07/24 11:01:04;;;;;;;5.05;2.75;;;;;;;;;;5095279;28;20035;-78
2023/07/24 11:03:30;;;;;;;4.07;2.47;;;;;;;;;;5078005;28;20032;-78
2023/07/24 11:05:57;;;;;;;4.47;2.60;;;;;;;;;;5078439;28;20031;-79
2023/07/24 11:08:23;;;;;;;4.25;2.50;;;;;;;;;;5094680;28;20052;-79
2023/07/24 11:10:52;;;;;;;4.72;2.55;;;;;;;;;;5077902;28;20077;-78
2023/07/24 11:13:19;;;;;;;4.43;2.70;;;;;;;;;;5095226;28;20103;-79
2023/07/24 11:15:45;;;;;;;4.40;2.58;;;;;;;;;;5077995;28;20034;-78
2023/07/24 11:18:11;;;;;;;5.22;2.67;;;;;;;;;;5094622;28;20028;-79
2023/07/24 11:20:38;;;;;;;4.90;2.35;;;;;;;;;;5094560;28;20032;-78
2023/07/24 11:23:04;;;;;;;3.63;2.17;;;;;;;;;;5095030;28;20115;-79
2023/07/24 11:25:30;;;;;;;4.85;2.55;;;;;;;;;;5096474;28;20098;-79
2023/07/24 11:27:55;;;;;;;4.03;2.42;;;;;;;;;;5096299;28;20040;-80
2023/07/24 11:30:21;;;;;;;2.67;2.28;;;;;;;;;;5094765;28;20028;-78
2023/07/24 11:32:47;;;;;;;3.17;2.30;;;;;;;;;;5094948;28;20032;-79
2023/07/24 11:35:13;;;;;;;5.38;2.55;;;;;;;;;;5094337;28;20024;-79
2023/07/24 11:37:39;;;;;;;4.40;2.38;;;;;;;;;;5095407;28;20035;-78
2023/07/24 11:40:14;;;;;;;6.05;2.40;;;;;;;;;;5128435;27;20035;-78
2023/07/24 11:42:41;;;;;;;3.88;2.15;;;;;;;;;;5093395;28;20073;-79
2023/07/24 11:45:09;;;;;;;4.47;2.40;;;;;;;;;;5094313;28;20024;-80
2023/07/24 11:47:45;;;;;;;4.10;2.85;;;;;;;;;;5058402;28;20031;-79
2023/07/24 11:50:11;;;;;;;3.67;2.47;;;;;;;;;;5075027;28;20115;-80
2023/07/24 11:52:45;;;;;;;3.17;2.35;;;;;;;;;;5056654;28;20478;-81
2023/07/24 11:55:17;;;;;;;5.03;2.33;;;;;;;;;;5073536;28;20025;-80
2023/07/24 11:57:43;;;;;;;4.57;2.38;;;;;;;;;;5073299;28;20390;-80
2023/07/24 12:00:19;;;;;;;3.60;2.40;;;;;;;;;;5073439;28;20021;-79
2023/07/24 12:02:45;;;;;;;4.22;2.40;;;;;;;;;;5056505;28;20120;-80
2023/07/24 12:05:11;;;;;;;4.05;2.50;;;;;;;;;;5073366;28;20454;-80
2023/07/24 12:07:36;;;;;;;4.60;2.13;;;;;;;;;;5074439;28;20419;-80
2023/07/24 12:10:04;;;;;;;4.75;2.45;;;;;;;;;;5073188;28;20081;-80
2023/07/24 12:12:42;;;;;;;4.25;2.30;;;;;;;;;;5073096;28;20024;-79
2023/07/24 12:15:08;;;;;;;4.38;2.67;;;;;;;;;;5056680;28;20383;-80
2023/07/24 12:17:33;;;;;;;5.03;2.50;;;;;;;;;;5089422;28;20119;-80
2023/07/24 12:19:59;;;;;;;4.55;2.63;;;;;;;;;;5095134;28;20086;-81
2023/07/24 12:22:24;;;;;;;4.03;2.35;;;;;;;;;;5076515;28;20032;-80
2023/07/24 12:24:49;;;;;;;5.32;2.70;;;;;;;;;;5094675;28;20028;-80
2023/07/24 12:27:15;;;;;;;3.97;2.45;;;;;;;;;;5093417;28;20028;-80
2023/07/24 12:29:41;;;;;;;3.67;2.25;;;;;;;;;;5093325;28;20024;-80
2023/07/24 12:32:06;;;;;;;3.13;2.35;;;;;;;;;;5092879;28;20032;-81
2023/07/24 12:34:32;;;;;;;3.75;2.47;;;;;;;;;;5094306;28;20024;-81
2023/07/24 12:36:57;;;;;;;3.08;2.45;;;;;;;;;;5093032;28;20064;-81
2023/07/24 12:39:23;;;;;;;4.13;2.40;;;;;;;;;;5094170;28;20031;-79
2023/07/24 12:41:49;;;;;;;6.43;2.20;;;;;;;;;;5092947;28;20027;-79
2023/07/24 12:44:14;;;;;;;2.80;2.20;;;;;;;;;;5109578;28;20130;-80
2023/07/24 12:46:40;;;;;;;3.85;2.42;;;;;;;;;;5094041;28;20123;-79
2023/07/24 12:49:05;;;;;;;6.78;2.60;;;;;;;;;;5075898;28;20028;-79
2023/07/24 12:51:31;;;;;;;3.58;2.53;;;;;;;;;;5094721;28;20047;-79
2023/07/24 12:53:56;;;;;;;3.65;2.67;;;;;;;;;;5093600;28;20028;-79
2023/07/24 12:56:22;;;;;;;2.55;2.10;;;;;;;;;;5092832;28;20126;-80
2023/07/24 12:58:47;;;;;;;3.40;2.30;;;;;;;;;;5094251;28;20038;-80
2023/07/24 13:01:13;;;;;;;4.28;2.25;;;;;;;;;;5093171;28;20031;-80
2023/07/24 13:03:38;;;;;;;4.25;2.47;;;;;;;;;;5092529;28;20064;-80
2023/07/24 13:06:04;;;;;;;3.95;2.30;;;;;;;;;;5093824;28;20028;-78
2023/07/24 13:08:29;;;;;;;4.47;2.50;;;;;;;;;;5092672;28;20040;-79
2023/07/24 13:10:54;;;;;;;5.28;2.50;;;;;;;;;;5093069;28;20382;-79
2023/07/24 13:13:20;;;;;;;5.57;2.40;;;;;;;;;;5093467;28;20043;-79
2023/07/24 13:15:45;;;;;;;4.15;2.38;;;;;;;;;;5094505;28;20101;-79
2023/07/24 13:18:13;;;;;;;3.40;2.38;;;;;;;;;;5094780;28;20032;-79
2023/07/24 13:20:40;;;;;;;3.95;2.20;;;;;;;;;;5093142;28;20062;-78
2023/07/24 13:23:05;;;;;;;3.75;2.58;;;;;;;;;;5075329;28;20478;-79
2023/07/24 13:25:30;;;;;;;3.80;2.20;;;;;;;;;;5072496;28;20111;-78
2023/07/24 13:27:56;;;;;;;3.40;2.40;;;;;;;;;;5073288;28;20036;-79
2023/07/24 13:30:21;;;;;;;5.53;2.30;;;;;;;;;;5073161;28;20033;-81
2023/07/24 13:32:47;;;;;;;2.60;1.90;;;;;;;;;;5072217;28;20028;-78
2023/07/24 13:35:12;;;;;;;4.30;1.90;;;;;;;;;;5073204;28;20078;-78
2023/07/24 13:37:37;;;;;;;2.67;2.00;;;;;;;;;;5073137;28;20032;-80
2023/07/24 13:40:03;;;;;;;2.97;2.15;;;;;;;;;;5071545;28;20032;-79
2023/07/24 13:42:28;;;;;;;2.78;1.83;;;;;;;;;;5073326;28;20062;-81
2023/07/24 13:44:54;;;;;;;4.28;1.92;;;;;;;;;;5071817;28;20494;-81
2023/07/24 13:47:21;;;;;;;2.70;1.98;;;;;;;;;;5073121;28;20081;-79
2023/07/24 13:49:46;;;;;;;2.00;1.70;;;;;;;;;;5055029;28;20528;-80
2023/07/24 13:52:11;;;;;;;2.83;2.20;;;;;;;;;;5080371;28;20028;-78
2023/07/24 13:54:37;;;;;;;4.15;1.85;;;;;;;;;;5092114;28;20368;-77
2023/07/24 13:57:02;;;;;;;2.22;1.73;;;;;;;;;;5075563;28;20028;-78
2023/07/24 13:59:28;;;;;;;3.28;1.90;;;;;;;;;;5091653;28;20395;-78
2023/07/24 14:01:53;;;;;;;2.25;1.70;;;;;;;;;;5092202;28;20061;-78
2023/07/24 14:04:18;;;;;;;2.05;1.70;;;;;;;;;;5092855;28;20034;-79
2023/07/24 14:06:44;;;;;;;3.03;1.60;;;;;;;;;;5078142;28;20031;-78
2023/07/24 14:09:09;;;;;;;2.38;1.60;;;;;;;;;;5096209;28;20127;-79
2023/07/24 14:11:34;;;;;;;2.45;1.60;;;;;;;;;;5096263;28;20447;-78
2023/07/24 14:14:00;;;;;;;2.90;1.80;;;;;;;;;;5088021;28;20086;-78
2023/07/24 14:16:25;;;;;;;2.60;1.83;;;;;;;;;;5090396;28;20056;-78
2023/07/24 14:18:51;;;;;;;3.58;1.90;;;;;;;;;;5092662;28;20454;-79
2023/07/24 14:21:16;;;;;;;3.78;1.95;;;;;;;;;;5096360;28;20083;-79
2023/07/24 14:23:41;;;;;;;4.55;1.77;;;;;;;;;;5085307;28;20033;-79
2023/07/24 14:26:07;;;;;;;4.03;2.35;;;;;;;;;;5081575;28;20032;-80
2023/07/24 14:28:32;;;;;;;2.47;2.10;;;;;;;;;;5078699;28;20020;-79
2023/07/24 14:30:58;;;;;;;2.53;1.98;;;;;;;;;;5078079;28;20036;-79
2023/07/24 14:33:25;;;;;;;3.00;1.90;;;;;;;;;;5078223;28;20111;-79
2023/07/24 14:35:51;;;;;;;2.95;1.95;;;;;;;;;;5077051;28;20021;-80
2023/07/24 14:38:16;;;;;;;4.20;2.08;;;;;;;;;;5077238;28;20386;-80